Aérodrome :
LOGIN :

S'inscrire | Disclaimer

   EN    FR    IT 

 










Légende :    VFR   VFR Marginal   IFR   IFR Intensif   IFR Très Intensif
Visi : 
Plafond : 
>= 8 km
>= 3000ft
5 à 8 km
1000 à 3000 ft
1500m à 5 km
500 à 1000 ft
800 à 1500m
200 à 500 ft
< 800m
< 200 ft
Symboles :   Orages  Brouillard  Fortes neiges  Fortes précipitations  Vent > 20 kt
SIGMETs :   Divers  Orages  Givrage  Turbulence  Onde Orograph.  Cendres Volcan.






- Altitude de l'aérodrome : 1197 ft
- Code IATA : SPM


ETAD - Spangdahlem Ab

DERNIER METAR :
  • 280811Z AUTO 00000KT 9000 BR OVC002 00/00 A2938 RMK AO2 SLP957 TSNO $

METARs EXPIRÉS :
  • 280756Z AUTO 00000KT 8000 BR OVC003 00/00 A2938 RMK AO2 RAE0657UPB28E48 SLP957 P0000 T00040004 TSNO $
  • 280748Z AUTO 00000KT 6000 BR OVC003 01/01 A2938 RMK AO2 RAE0657UPB28E48 SLP956 TSNO $
  • 280728Z AUTO 00000KT 6000 -UP BR OVC003 00/00 A2937 RMK AO2 VIS 1000 RWY23 RAE0657UPB28 CIG 002 RWY23 SLP954 TSNO $
  • 280657Z AUTO 00000KT 9999 OVC002 00/00 A2936 RMK AO2 RAE57 SLP951 TSNO $
  • 280639Z AUTO 00000KT 9999 -RA BR OVC003 00/00 A2936 RMK AO2 VIS 3600 RWY23 SNE39RAB39 CIG 002 RWY24 SLP951 TSNO $
  • 280556Z AUTO 00000KT 9999 -SN BR OVC004 00/00 A2935 RMK AO2 RAE0457SNB0457 CIG 004V006 CIG 003 RWY23 CIG 003 RWY24 SLP946 P0001 60001 T00020002 10011 20002 53005 TSNO $

Prévision TAF périmée.



MET'MAP, la Météo Aéronautique d'un coup d'oeil ! - Copyright ORBIFLY Décembre 2007 - Disclaimer

ORBIFLY MET'MAP TEAM :

Programmation & Développement : Alexandra Zaïnal
Sur une idée originale de : Baudouin d'Aumeries
Assistance à la programmation : Marc-Olivier Méhu
Soutien technique & logistique : Manuel Goepfert

Contact : metmap@orbifly.com




SOURCES & CREDITS :

   NOAA